sensor_id;sensor_type;location;lat;lon;timestamp;temperature;humidity
60717;DHT22;46566;52.700;6.192;2024-03-17T00:00:23;5.40;99.90
60717;DHT22;46566;52.700;6.192;2024-03-17T00:02:49;5.40;99.90
60717;DHT22;46566;52.700;6.192;2024-03-17T00:05:15;5.40;99.90
60717;DHT22;46566;52.700;6.192;2024-03-17T00:07:41;5.40;99.90
60717;DHT22;46566;52.700;6.192;2024-03-17T00:10:07;5.40;99.90
60717;DHT22;46566;52.700;6.192;2024-03-17T00:12:33;5.30;99.90
60717;DHT22;46566;52.700;6.192;2024-03-17T00:14:59;5.30;99.90
60717;DHT22;46566;52.700;6.192;2024-03-17T00:17:25;5.30;99.90
60717;DHT22;46566;52.700;6.192;2024-03-17T00:19:51;5.30;99.90
60717;DHT22;46566;52.700;6.192;2024-03-17T00:22:16;5.30;99.90
60717;DHT22;46566;52.700;6.192;2024-03-17T00:24:45;5.30;99.90
60717;DHT22;46566;52.700;6.192;2024-03-17T00:27:11;5.30;99.90
60717;DHT22;46566;52.700;6.192;2024-03-17T00:29:37;5.30;99.90
60717;DHT22;46566;52.700;6.192;2024-03-17T00:32:04;5.30;99.90
60717;DHT22;46566;52.700;6.192;2024-03-17T00:34:30;5.30;99.90
60717;DHT22;46566;52.700;6.192;2024-03-17T00:36:56;5.20;99.90
60717;DHT22;46566;52.700;6.192;2024-03-17T00:39:21;5.20;99.90
60717;DHT22;46566;52.700;6.192;2024-03-17T00:41:48;5.10;99.90
60717;DHT22;46566;52.700;6.192;2024-03-17T00:44:14;5.10;99.90
60717;DHT22;46566;52.700;6.192;2024-03-17T00:46:41;5.10;99.90
60717;DHT22;46566;52.700;6.192;2024-03-17T00:49:09;5.10;99.90
60717;DHT22;46566;52.700;6.192;2024-03-17T00:51:35;5.00;99.90
60717;DHT22;46566;52.700;6.192;2024-03-17T00:54:01;5.00;99.90
60717;DHT22;46566;52.700;6.192;2024-03-17T00:56:27;5.00;99.90
60717;DHT22;46566;52.700;6.192;2024-03-17T00:58:53;4.90;99.90
60717;DHT22;46566;52.700;6.192;2024-03-17T01:01:19;4.90;99.90
60717;DHT22;46566;52.700;6.192;2024-03-17T01:03:45;4.90;99.90
60717;DHT22;46566;52.700;6.192;2024-03-17T01:06:11;4.90;99.90
60717;DHT22;46566;52.700;6.192;2024-03-17T01:08:37;4.80;99.90
60717;DHT22;46566;52.700;6.192;2024-03-17T01:11:03;4.80;99.90
60717;DHT22;46566;52.700;6.192;2024-03-17T01:13:28;4.80;99.90
60717;DHT22;46566;52.700;6.192;2024-03-17T01:15:54;4.90;99.90
60717;DHT22;46566;52.700;6.192;2024-03-17T01:18:20;4.80;99.90
60717;DHT22;46566;52.700;6.192;2024-03-17T01:20:45;4.80;99.90
60717;DHT22;46566;52.700;6.192;2024-03-17T01:23:11;4.80;99.90
60717;DHT22;46566;52.700;6.192;2024-03-17T01:25:37;4.80;99.90
60717;DHT22;46566;52.700;6.192;2024-03-17T01:28:04;4.80;99.90
60717;DHT22;46566;52.700;6.192;2024-03-17T01:30:30;4.80;99.90
60717;DHT22;46566;52.700;6.192;2024-03-17T01:32:56;4.80;99.90
60717;DHT22;46566;52.700;6.192;2024-03-17T01:35:21;4.80;99.90
60717;DHT22;46566;52.700;6.192;2024-03-17T01:37:48;4.80;99.90
60717;DHT22;46566;52.700;6.192;2024-03-17T01:40:14;4.80;99.90
60717;DHT22;46566;52.700;6.192;2024-03-17T01:42:41;4.80;99.90
60717;DHT22;46566;52.700;6.192;2024-03-17T01:45:31;4.80;99.90
60717;DHT22;46566;52.700;6.192;2024-03-17T01:48:00;4.80;99.90
60717;DHT22;46566;52.700;6.192;2024-03-17T01:50:32;4.90;99.90
60717;DHT22;46566;52.700;6.192;2024-03-17T01:53:01;4.80;99.90
60717;DHT22;46566;52.700;6.192;2024-03-17T01:55:28;4.80;99.90
60717;DHT22;46566;52.700;6.192;2024-03-17T01:57:54;4.80;99.90
60717;DHT22;46566;52.700;6.192;2024-03-17T02:00:20;4.70;99.90
60717;DHT22;46566;52.700;6.192;2024-03-17T02:02:47;4.60;99.90
60717;DHT22;46566;52.700;6.192;2024-03-17T02:05:13;4.60;99.90
60717;DHT22;46566;52.700;6.192;2024-03-17T02:07:39;4.60;99.90
60717;DHT22;46566;52.700;6.192;2024-03-17T02:10:05;4.60;99.90
60717;DHT22;46566;52.700;6.192;2024-03-17T02:12:31;4.60;99.90
60717;DHT22;46566;52.700;6.192;2024-03-17T02:14:58;4.60;99.90
60717;DHT22;46566;52.700;6.192;2024-03-17T02:17:24;4.60;99.90
60717;DHT22;46566;52.700;6.192;2024-03-17T02:19:51;4.60;99.90
60717;DHT22;46566;52.700;6.192;2024-03-17T02:22:17;4.50;99.90
60717;DHT22;46566;52.700;6.192;2024-03-17T02:24:44;4.50;99.90
60717;DHT22;46566;52.700;6.192;2024-03-17T02:27:10;4.50;99.90
60717;DHT22;46566;52.700;6.192;2024-03-17T02:29:36;4.50;99.90
60717;DHT22;46566;52.700;6.192;2024-03-17T02:32:08;4.50;99.90
60717;DHT22;46566;52.700;6.192;2024-03-17T02:34:34;4.50;99.90
60717;DHT22;46566;52.700;6.192;2024-03-17T02:37:01;4.50;99.90
60717;DHT22;46566;52.700;6.192;2024-03-17T02:39:29;4.50;99.90
60717;DHT22;46566;52.700;6.192;2024-03-17T02:42:04;4.50;99.90
60717;DHT22;46566;52.700;6.192;2024-03-17T02:44:31;4.50;99.90
60717;DHT22;46566;52.700;6.192;2024-03-17T02:46:58;4.50;99.90
60717;DHT22;46566;52.700;6.192;2024-03-17T02:49:25;4.50;99.90
60717;DHT22;46566;52.700;6.192;2024-03-17T02:51:56;4.50;99.90
60717;DHT22;46566;52.700;6.192;2024-03-17T02:54:22;4.50;99.90
60717;DHT22;46566;52.700;6.192;2024-03-17T02:56:48;4.50;99.90
60717;DHT22;46566;52.700;6.192;2024-03-17T02:59:14;4.40;99.90
60717;DHT22;46566;52.700;6.192;2024-03-17T03:01:40;4.50;99.90
60717;DHT22;46566;52.700;6.192;2024-03-17T03:04:06;4.50;99.90
60717;DHT22;46566;52.700;6.192;2024-03-17T03:06:33;4.50;99.90
60717;DHT22;46566;52.700;6.192;2024-03-17T03:08:59;4.50;99.90
60717;DHT22;46566;52.700;6.192;2024-03-17T03:11:25;4.50;99.90
60717;DHT22;46566;52.700;6.192;2024-03-17T03:13:51;4.50;99.90
60717;DHT22;46566;52.700;6.192;2024-03-17T03:16:17;4.50;99.90
60717;DHT22;46566;52.700;6.192;2024-03-17T03:18:44;4.50;99.90
60717;DHT22;46566;52.700;6.192;2024-03-17T03:21:11;4.60;99.90
60717;DHT22;46566;52.700;6.192;2024-03-17T03:23:37;4.60;99.90
60717;DHT22;46566;52.700;6.192;2024-03-17T03:26:04;4.60;99.90
60717;DHT22;46566;52.700;6.192;2024-03-17T03:28:31;4.50;99.90
60717;DHT22;46566;52.700;6.192;2024-03-17T03:30:57;4.60;99.90
60717;DHT22;46566;52.700;6.192;2024-03-17T03:33:24;4.50;99.90
60717;DHT22;46566;52.700;6.192;2024-03-17T03:35:49;4.50;99.90
60717;DHT22;46566;52.700;6.192;2024-03-17T03:38:16;4.50;99.90
60717;DHT22;46566;52.700;6.192;2024-03-17T03:40:43;4.40;99.90
60717;DHT22;46566;52.700;6.192;2024-03-17T03:43:09;4.40;99.90
60717;DHT22;46566;52.700;6.192;2024-03-17T03:45:35;4.40;99.90
60717;DHT22;46566;52.700;6.192;2024-03-17T03:48:02;4.40;99.90
60717;DHT22;46566;52.700;6.192;2024-03-17T03:50:29;4.40;99.90
60717;DHT22;46566;52.700;6.192;2024-03-17T03:52:55;4.40;99.90
60717;DHT22;46566;52.700;6.192;2024-03-17T03:55:21;4.40;99.90
60717;DHT22;46566;52.700;6.192;2024-03-17T03:57:46;4.40;99.90
60717;DHT22;46566;52.700;6.192;2024-03-17T04:00:16;4.40;99.90
60717;DHT22;46566;52.700;6.192;2024-03-17T04:02:47;4.50;99.90
60717;DHT22;46566;52.700;6.192;2024-03-17T04:05:14;4.50;99.90
60717;DHT22;46566;52.700;6.192;2024-03-17T04:07:40;4.50;99.90
60717;DHT22;46566;52.700;6.192;2024-03-17T04:10:06;4.50;99.90
60717;DHT22;46566;52.700;6.192;2024-03-17T04:12:32;4.50;99.90
60717;DHT22;46566;52.700;6.192;2024-03-17T04:14:59;4.60;99.90
60717;DHT22;46566;52.700;6.192;2024-03-17T04:17:25;4.60;99.90
60717;DHT22;46566;52.700;6.192;2024-03-17T04:19:52;4.60;99.90
60717;DHT22;46566;52.700;6.192;2024-03-17T04:22:18;4.60;99.90
60717;DHT22;46566;52.700;6.192;2024-03-17T04:24:45;4.60;99.90
60717;DHT22;46566;52.700;6.192;2024-03-17T04:27:12;4.60;99.90
60717;DHT22;46566;52.700;6.192;2024-03-17T04:29:39;4.70;99.90
60717;DHT22;46566;52.700;6.192;2024-03-17T04:32:05;4.60;99.90
60717;DHT22;46566;52.700;6.192;2024-03-17T04:34:31;4.70;99.90
60717;DHT22;46566;52.700;6.192;2024-03-17T04:36:57;4.80;99.90
60717;DHT22;46566;52.700;6.192;2024-03-17T04:39:23;4.70;99.90
60717;DHT22;46566;52.700;6.192;2024-03-17T04:41:50;4.80;99.90
60717;DHT22;46566;52.700;6.192;2024-03-17T04:44:16;4.80;99.90
60717;DHT22;46566;52.700;6.192;2024-03-17T04:46:42;4.80;99.90
60717;DHT22;46566;52.700;6.192;2024-03-17T04:49:08;4.80;99.90
60717;DHT22;46566;52.700;6.192;2024-03-17T04:51:34;4.80;99.90
60717;DHT22;46566;52.700;6.192;2024-03-17T04:54:01;4.80;99.90
60717;DHT22;46566;52.700;6.192;2024-03-17T04:56:31;4.90;99.90
60717;DHT22;46566;52.700;6.192;2024-03-17T04:58:57;4.90;99.90
60717;DHT22;46566;52.700;6.192;2024-03-17T05:01:22;4.90;99.90
60717;DHT22;46566;52.700;6.192;2024-03-17T05:03:51;4.90;99.90
60717;DHT22;46566;52.700;6.192;2024-03-17T05:06:17;4.90;99.90
60717;DHT22;46566;52.700;6.192;2024-03-17T05:08:43;4.90;99.90
60717;DHT22;46566;52.700;6.192;2024-03-17T05:11:09;4.90;99.90
60717;DHT22;46566;52.700;6.192;2024-03-17T05:13:35;4.90;99.90
60717;DHT22;46566;52.700;6.192;2024-03-17T05:16:02;4.90;99.90
60717;DHT22;46566;52.700;6.192;2024-03-17T05:18:29;4.90;99.90
60717;DHT22;46566;52.700;6.192;2024-03-17T05:21:07;4.90;99.90
60717;DHT22;46566;52.700;6.192;2024-03-17T05:23:34;4.90;99.90
60717;DHT22;46566;52.700;6.192;2024-03-17T05:26:01;4.90;99.90
60717;DHT22;46566;52.700;6.192;2024-03-17T05:28:28;4.90;99.90
60717;DHT22;46566;52.700;6.192;2024-03-17T05:30:54;4.90;99.90
60717;DHT22;46566;52.700;6.192;2024-03-17T05:33:21;4.90;99.90
60717;DHT22;46566;52.700;6.192;2024-03-17T05:35:57;4.90;99.90
60717;DHT22;46566;52.700;6.192;2024-03-17T05:38:24;5.00;99.90
60717;DHT22;46566;52.700;6.192;2024-03-17T05:43:23;5.00;99.90
60717;DHT22;46566;52.700;6.192;2024-03-17T05:45:53;5.00;99.90
60717;DHT22;46566;52.700;6.192;2024-03-17T05:48:19;5.00;99.90
60717;DHT22;46566;52.700;6.192;2024-03-17T05:50:45;5.00;99.90
60717;DHT22;46566;52.700;6.192;2024-03-17T05:53:11;5.00;99.90
60717;DHT22;46566;52.700;6.192;2024-03-17T05:55:37;5.10;99.90
60717;DHT22;46566;52.700;6.192;2024-03-17T05:58:03;5.10;99.90
60717;DHT22;46566;52.700;6.192;2024-03-17T06:00:30;5.10;99.90
60717;DHT22;46566;52.700;6.192;2024-03-17T06:02:59;5.10;99.90
60717;DHT22;46566;52.700;6.192;2024-03-17T06:05:25;5.10;99.90
60717;DHT22;46566;52.700;6.192;2024-03-17T06:07:51;5.10;99.90
60717;DHT22;46566;52.700;6.192;2024-03-17T06:10:17;5.10;99.90
60717;DHT22;46566;52.700;6.192;2024-03-17T06:12:42;5.10;99.90
60717;DHT22;46566;52.700;6.192;2024-03-17T06:15:08;5.20;99.90
60717;DHT22;46566;52.700;6.192;2024-03-17T06:17:34;5.20;99.90
60717;DHT22;46566;52.700;6.192;2024-03-17T06:20:00;5.20;99.90
60717;DHT22;46566;52.700;6.192;2024-03-17T06:22:28;5.20;99.90
60717;DHT22;46566;52.700;6.192;2024-03-17T06:24:54;5.20;99.90
60717;DHT22;46566;52.700;6.192;2024-03-17T06:27:20;5.20;99.90
60717;DHT22;46566;52.700;6.192;2024-03-17T06:29:45;5.20;99.90
60717;DHT22;46566;52.700;6.192;2024-03-17T06:32:11;5.20;99.90
60717;DHT22;46566;52.700;6.192;2024-03-17T06:34:37;5.20;99.90
60717;DHT22;46566;52.700;6.192;2024-03-17T06:37:03;5.30;99.90
60717;DHT22;46566;52.700;6.192;2024-03-17T06:39:29;5.30;99.90
60717;DHT22;46566;52.700;6.192;2024-03-17T06:41:54;5.30;99.90
60717;DHT22;46566;52.700;6.192;2024-03-17T06:44:20;5.30;99.90
60717;DHT22;46566;52.700;6.192;2024-03-17T06:46:50;5.30;99.90
60717;DHT22;46566;52.700;6.192;2024-03-17T06:49:15;5.30;99.90
60717;DHT22;46566;52.700;6.192;2024-03-17T06:51:42;5.30;99.90
60717;DHT22;46566;52.700;6.192;2024-03-17T06:54:08;5.40;99.90
60717;DHT22;46566;52.700;6.192;2024-03-17T06:56:34;5.40;99.90
60717;DHT22;46566;52.700;6.192;2024-03-17T06:59:01;5.40;99.90
60717;DHT22;46566;52.700;6.192;2024-03-17T07:01:26;5.50;99.90
60717;DHT22;46566;52.700;6.192;2024-03-17T07:03:53;5.50;99.90
60717;DHT22;46566;52.700;6.192;2024-03-17T07:06:19;5.60;99.90
60717;DHT22;46566;52.700;6.192;2024-03-17T07:08:44;5.60;99.90
60717;DHT22;46566;52.700;6.192;2024-03-17T07:11:10;5.70;99.90
60717;DHT22;46566;52.700;6.192;2024-03-17T07:13:37;5.70;99.90
60717;DHT22;46566;52.700;6.192;2024-03-17T07:16:04;5.80;99.90
60717;DHT22;46566;52.700;6.192;2024-03-17T07:18:34;5.80;99.90
60717;DHT22;46566;52.700;6.192;2024-03-17T07:21:02;5.90;99.90
60717;DHT22;46566;52.700;6.192;2024-03-17T07:23:30;5.90;99.90
60717;DHT22;46566;52.700;6.192;2024-03-17T07:26:00;5.90;99.90
60717;DHT22;46566;52.700;6.192;2024-03-17T07:28:26;6.00;99.90
60717;DHT22;46566;52.700;6.192;2024-03-17T07:30:55;6.10;99.90
60717;DHT22;46566;52.700;6.192;2024-03-17T07:33:22;6.10;99.90
60717;DHT22;46566;52.700;6.192;2024-03-17T07:35:53;6.10;99.90
60717;DHT22;46566;52.700;6.192;2024-03-17T07:38:19;6.20;99.90
60717;DHT22;46566;52.700;6.192;2024-03-17T07:40:58;6.20;99.90
60717;DHT22;46566;52.700;6.192;2024-03-17T07:43:25;6.30;99.90
60717;DHT22;46566;52.700;6.192;2024-03-17T07:46:01;6.40;99.90
60717;DHT22;46566;52.700;6.192;2024-03-17T07:48:28;6.50;99.90
60717;DHT22;46566;52.700;6.192;2024-03-17T07:50:57;6.60;99.90
60717;DHT22;46566;52.700;6.192;2024-03-17T07:53:24;6.70;99.90
60717;DHT22;46566;52.700;6.192;2024-03-17T07:56:00;6.80;99.90
60717;DHT22;46566;52.700;6.192;2024-03-17T07:58:26;6.90;99.90
60717;DHT22;46566;52.700;6.192;2024-03-17T08:00:53;6.90;99.90
60717;DHT22;46566;52.700;6.192;2024-03-17T08:03:22;7.00;99.90
60717;DHT22;46566;52.700;6.192;2024-03-17T08:05:49;7.00;99.90
60717;DHT22;46566;52.700;6.192;2024-03-17T08:08:16;7.10;99.90
60717;DHT22;46566;52.700;6.192;2024-03-17T08:10:41;7.10;99.90
60717;DHT22;46566;52.700;6.192;2024-03-17T08:13:07;7.20;99.90
60717;DHT22;46566;52.700;6.192;2024-03-17T08:15:34;7.20;99.90
60717;DHT22;46566;52.700;6.192;2024-03-17T08:18:00;7.30;99.90
60717;DHT22;46566;52.700;6.192;2024-03-17T08:20:26;7.30;99.90
60717;DHT22;46566;52.700;6.192;2024-03-17T08:22:52;7.50;99.90
60717;DHT22;46566;52.700;6.192;2024-03-17T08:25:17;7.60;99.90
60717;DHT22;46566;52.700;6.192;2024-03-17T08:27:43;7.70;99.90
60717;DHT22;46566;52.700;6.192;2024-03-17T08:30:09;7.80;99.90
60717;DHT22;46566;52.700;6.192;2024-03-17T08:32:35;7.90;99.90
60717;DHT22;46566;52.700;6.192;2024-03-17T08:35:01;8.00;99.90
60717;DHT22;46566;52.700;6.192;2024-03-17T08:37:27;8.10;99.90
60717;DHT22;46566;52.700;6.192;2024-03-17T08:39:53;8.20;99.90
60717;DHT22;46566;52.700;6.192;2024-03-17T08:42:18;8.40;99.90
60717;DHT22;46566;52.700;6.192;2024-03-17T08:44:47;8.40;99.90
60717;DHT22;46566;52.700;6.192;2024-03-17T08:47:13;8.50;99.90
60717;DHT22;46566;52.700;6.192;2024-03-17T08:49:39;8.60;99.90
60717;DHT22;46566;52.700;6.192;2024-03-17T08:52:04;8.60;99.90
60717;DHT22;46566;52.700;6.192;2024-03-17T08:54:30;8.60;99.90
60717;DHT22;46566;52.700;6.192;2024-03-17T08:56:56;8.80;99.90
60717;DHT22;46566;52.700;6.192;2024-03-17T08:59:22;9.30;99.90
60717;DHT22;46566;52.700;6.192;2024-03-17T09:01:47;9.80;99.90
60717;DHT22;46566;52.700;6.192;2024-03-17T09:04:13;10.20;99.90
60717;DHT22;46566;52.700;6.192;2024-03-17T09:06:39;10.80;99.90
60717;DHT22;46566;52.700;6.192;2024-03-17T09:09:05;11.60;99.90
60717;DHT22;46566;52.700;6.192;2024-03-17T09:11:31;12.00;99.90
60717;DHT22;46566;52.700;6.192;2024-03-17T09:13:57;12.00;99.90
60717;DHT22;46566;52.700;6.192;2024-03-17T09:16:24;12.00;99.90
60717;DHT22;46566;52.700;6.192;2024-03-17T09:18:51;11.80;99.90
60717;DHT22;46566;52.700;6.192;2024-03-17T09:21:17;11.50;99.90
60717;DHT22;46566;52.700;6.192;2024-03-17T09:23:43;11.20;99.90
60717;DHT22;46566;52.700;6.192;2024-03-17T09:26:10;11.00;99.90
60717;DHT22;46566;52.700;6.192;2024-03-17T09:28:41;10.80;99.90
60717;DHT22;46566;52.700;6.192;2024-03-17T09:31:07;10.70;99.90
60717;DHT22;46566;52.700;6.192;2024-03-17T09:33:34;10.70;99.90
60717;DHT22;46566;52.700;6.192;2024-03-17T09:36:07;10.60;99.90
60717;DHT22;46566;52.700;6.192;2024-03-17T09:38:34;10.60;99.90
60717;DHT22;46566;52.700;6.192;2024-03-17T09:41:00;10.50;99.90
60717;DHT22;46566;52.700;6.192;2024-03-17T09:43:27;10.50;99.90
60717;DHT22;46566;52.700;6.192;2024-03-17T09:45:54;10.40;99.90
60717;DHT22;46566;52.700;6.192;2024-03-17T09:48:27;10.40;99.90
60717;DHT22;46566;52.700;6.192;2024-03-17T09:50:58;10.40;99.90
60717;DHT22;46566;52.700;6.192;2024-03-17T09:53:29;10.40;99.90
60717;DHT22;46566;52.700;6.192;2024-03-17T09:58:25;10.40;99.90
60717;DHT22;46566;52.700;6.192;2024-03-17T10:00:51;10.40;99.90
60717;DHT22;46566;52.700;6.192;2024-03-17T10:06:05;10.40;99.90
60717;DHT22;46566;52.700;6.192;2024-03-17T10:08:31;10.40;99.90
60717;DHT22;46566;52.700;6.192;2024-03-17T10:10:59;10.40;99.90
60717;DHT22;46566;52.700;6.192;2024-03-17T10:13:25;10.40;99.90
60717;DHT22;46566;52.700;6.192;2024-03-17T10:15:51;10.40;99.90
60717;DHT22;46566;52.700;6.192;2024-03-17T10:18:23;10.40;99.90
60717;DHT22;46566;52.700;6.192;2024-03-17T10:20:49;10.40;99.90
60717;DHT22;46566;52.700;6.192;2024-03-17T10:23:22;10.40;99.90
60717;DHT22;46566;52.700;6.192;2024-03-17T10:25:47;10.40;99.90
60717;DHT22;46566;52.700;6.192;2024-03-17T10:28:15;10.40;99.90
60717;DHT22;46566;52.700;6.192;2024-03-17T10:30:42;10.40;99.90
60717;DHT22;46566;52.700;6.192;2024-03-17T10:33:22;10.40;99.90
60717;DHT22;46566;52.700;6.192;2024-03-17T10:35:48;10.40;99.90
60717;DHT22;46566;52.700;6.192;2024-03-17T10:38:14;10.40;99.90
60717;DHT22;46566;52.700;6.192;2024-03-17T10:40:41;10.50;99.90
60717;DHT22;46566;52.700;6.192;2024-03-17T10:43:07;10.40;99.90
60717;DHT22;46566;52.700;6.192;2024-03-17T10:45:33;10.50;99.90
60717;DHT22;46566;52.700;6.192;2024-03-17T10:48:07;10.50;99.90
60717;DHT22;46566;52.700;6.192;2024-03-17T10:50:38;10.50;99.90
60717;DHT22;46566;52.700;6.192;2024-03-17T10:53:06;10.50;99.90
60717;DHT22;46566;52.700;6.192;2024-03-17T10:55:44;10.60;99.90
60717;DHT22;46566;52.700;6.192;2024-03-17T10:58:34;10.60;99.90
60717;DHT22;46566;52.700;6.192;2024-03-17T11:01:02;10.70;99.90
60717;DHT22;46566;52.700;6.192;2024-03-17T11:03:33;10.80;99.90
60717;DHT22;46566;52.700;6.192;2024-03-17T11:06:02;10.80;99.90
60717;DHT22;46566;52.700;6.192;2024-03-17T11:08:30;10.90;99.90
60717;DHT22;46566;52.700;6.192;2024-03-17T11:10:57;10.90;99.90
60717;DHT22;46566;52.700;6.192;2024-03-17T11:13:30;10.90;99.90
60717;DHT22;46566;52.700;6.192;2024-03-17T11:15:57;11.00;99.90
60717;DHT22;46566;52.700;6.192;2024-03-17T11:18:34;11.10;99.90
60717;DHT22;46566;52.700;6.192;2024-03-17T11:21:05;11.20;99.90
60717;DHT22;46566;52.700;6.192;2024-03-17T11:23:38;11.20;99.90
60717;DHT22;46566;52.700;6.192;2024-03-17T11:26:05;11.30;99.90
60717;DHT22;46566;52.700;6.192;2024-03-17T11:31:38;11.40;99.90
60717;DHT22;46566;52.700;6.192;2024-03-17T11:36:52;11.40;99.90
60717;DHT22;46566;52.700;6.192;2024-03-17T11:39:19;11.40;99.90
60717;DHT22;46566;52.700;6.192;2024-03-17T11:41:49;11.40;99.90
60717;DHT22;46566;52.700;6.192;2024-03-17T11:46:57;11.40;99.90
60717;DHT22;46566;52.700;6.192;2024-03-17T11:49:28;11.40;99.90
60717;DHT22;46566;52.700;6.192;2024-03-17T11:52:02;11.40;99.90
60717;DHT22;46566;52.700;6.192;2024-03-17T11:54:34;11.40;99.90
60717;DHT22;46566;52.700;6.192;2024-03-17T11:57:07;11.40;99.90
60717;DHT22;46566;52.700;6.192;2024-03-17T11:59:34;11.40;99.90
60717;DHT22;46566;52.700;6.192;2024-03-17T12:02:00;11.40;99.90
60717;DHT22;46566;52.700;6.192;2024-03-17T12:04:27;11.40;99.90
60717;DHT22;46566;52.700;6.192;2024-03-17T12:06:55;11.50;99.90
60717;DHT22;46566;52.700;6.192;2024-03-17T12:09:29;11.50;99.90
60717;DHT22;46566;52.700;6.192;2024-03-17T12:12:03;11.60;99.90
60717;DHT22;46566;52.700;6.192;2024-03-17T12:14:32;11.70;99.90
60717;DHT22;46566;52.700;6.192;2024-03-17T12:17:00;11.70;99.90
60717;DHT22;46566;52.700;6.192;2024-03-17T12:19:27;11.70;99.90
60717;DHT22;46566;52.700;6.192;2024-03-17T12:21:55;11.70;99.90
60717;DHT22;46566;52.700;6.192;2024-03-17T12:24:23;11.70;99.90
60717;DHT22;46566;52.700;6.192;2024-03-17T12:26:50;11.80;99.90
60717;DHT22;46566;52.700;6.192;2024-03-17T12:31:54;11.90;99.90
60717;DHT22;46566;52.700;6.192;2024-03-17T12:34:21;11.90;99.90
60717;DHT22;46566;52.700;6.192;2024-03-17T12:36:48;12.00;99.90
60717;DHT22;46566;52.700;6.192;2024-03-17T12:39:19;12.00;99.90
60717;DHT22;46566;52.700;6.192;2024-03-17T12:42:00;12.00;99.90
60717;DHT22;46566;52.700;6.192;2024-03-17T12:44:26;12.10;99.90
60717;DHT22;46566;52.700;6.192;2024-03-17T12:46:58;12.10;99.90
60717;DHT22;46566;52.700;6.192;2024-03-17T12:49:30;12.10;99.90
60717;DHT22;46566;52.700;6.192;2024-03-17T12:51:56;12.20;99.90
60717;DHT22;46566;52.700;6.192;2024-03-17T12:54:26;12.30;99.90
60717;DHT22;46566;52.700;6.192;2024-03-17T12:57:04;12.30;99.90
60717;DHT22;46566;52.700;6.192;2024-03-17T12:59:48;12.30;99.90
60717;DHT22;46566;52.700;6.192;2024-03-17T13:02:33;12.40;99.90
60717;DHT22;46566;52.700;6.192;2024-03-17T13:07:37;12.40;99.90
60717;DHT22;46566;52.700;6.192;2024-03-17T13:10:02;12.40;99.90
60717;DHT22;46566;52.700;6.192;2024-03-17T13:12:29;12.40;99.90
60717;DHT22;46566;52.700;6.192;2024-03-17T13:14:55;12.50;99.90
60717;DHT22;46566;52.700;6.192;2024-03-17T13:17:21;12.50;99.90
60717;DHT22;46566;52.700;6.192;2024-03-17T13:19:47;12.50;99.90
60717;DHT22;46566;52.700;6.192;2024-03-17T13:22:13;12.50;99.90
60717;DHT22;46566;52.700;6.192;2024-03-17T13:24:39;12.50;99.90
60717;DHT22;46566;52.700;6.192;2024-03-17T13:27:05;12.50;99.90
60717;DHT22;46566;52.700;6.192;2024-03-17T13:29:32;12.50;99.90
60717;DHT22;46566;52.700;6.192;2024-03-17T13:32:04;12.50;99.90
60717;DHT22;46566;52.700;6.192;2024-03-17T13:34:31;12.60;99.90
60717;DHT22;46566;52.700;6.192;2024-03-17T13:36:56;12.60;99.90
60717;DHT22;46566;52.700;6.192;2024-03-17T13:39:22;12.50;99.90
60717;DHT22;46566;52.700;6.192;2024-03-17T13:41:54;12.50;99.90
60717;DHT22;46566;52.700;6.192;2024-03-17T13:44:23;12.50;99.90
60717;DHT22;46566;52.700;6.192;2024-03-17T13:46:48;12.50;99.90
60717;DHT22;46566;52.700;6.192;2024-03-17T13:49:14;12.50;99.90
60717;DHT22;46566;52.700;6.192;2024-03-17T13:51:40;12.50;99.90
60717;DHT22;46566;52.700;6.192;2024-03-17T13:54:07;12.50;99.90
60717;DHT22;46566;52.700;6.192;2024-03-17T13:56:33;12.50;99.90
60717;DHT22;46566;52.700;6.192;2024-03-17T13:59:24;12.50;99.90
60717;DHT22;46566;52.700;6.192;2024-03-17T14:01:52;12.50;99.90
60717;DHT22;46566;52.700;6.192;2024-03-17T14:04:18;12.50;99.90
60717;DHT22;46566;52.700;6.192;2024-03-17T14:06:45;12.40;99.90
60717;DHT22;46566;52.700;6.192;2024-03-17T14:09:37;12.40;99.90
60717;DHT22;46566;52.700;6.192;2024-03-17T14:12:03;12.40;99.90
60717;DHT22;46566;52.700;6.192;2024-03-17T14:14:28;12.40;99.90
60717;DHT22;46566;52.700;6.192;2024-03-17T14:16:54;12.40;99.90
60717;DHT22;46566;52.700;6.192;2024-03-17T14:19:45;12.30;99.90
60717;DHT22;46566;52.700;6.192;2024-03-17T14:22:10;12.30;99.90
60717;DHT22;46566;52.700;6.192;2024-03-17T14:24:36;12.40;99.90
60717;DHT22;46566;52.700;6.192;2024-03-17T14:27:02;12.40;99.90
60717;DHT22;46566;52.700;6.192;2024-03-17T14:29:54;12.40;99.90
60717;DHT22;46566;52.700;6.192;2024-03-17T14:32:19;12.40;99.90
60717;DHT22;46566;52.700;6.192;2024-03-17T14:34:47;12.40;99.90
60717;DHT22;46566;52.700;6.192;2024-03-17T14:37:12;12.40;99.90
60717;DHT22;46566;52.700;6.192;2024-03-17T14:40:05;12.40;99.90
60717;DHT22;46566;52.700;6.192;2024-03-17T14:42:37;12.40;99.90
60717;DHT22;46566;52.700;6.192;2024-03-17T14:45:03;12.40;99.90
60717;DHT22;46566;52.700;6.192;2024-03-17T14:47:55;12.40;99.90
60717;DHT22;46566;52.700;6.192;2024-03-17T14:50:21;12.40;99.90
60717;DHT22;46566;52.700;6.192;2024-03-17T14:52:46;12.40;99.90
60717;DHT22;46566;52.700;6.192;2024-03-17T14:55:13;12.40;99.90
60717;DHT22;46566;52.700;6.192;2024-03-17T14:57:50;12.30;99.90
60717;DHT22;46566;52.700;6.192;2024-03-17T15:00:15;12.30;99.90
60717;DHT22;46566;52.700;6.192;2024-03-17T15:02:43;12.30;99.90
60717;DHT22;46566;52.700;6.192;2024-03-17T15:05:09;12.30;99.90
60717;DHT22;46566;52.700;6.192;2024-03-17T15:07:35;12.30;99.90
60717;DHT22;46566;52.700;6.192;2024-03-17T15:10:26;12.30;99.90
60717;DHT22;46566;52.700;6.192;2024-03-17T15:12:52;12.20;99.90
60717;DHT22;46566;52.700;6.192;2024-03-17T15:15:19;12.20;99.90
60717;DHT22;46566;52.700;6.192;2024-03-17T15:17:45;12.10;99.90
60717;DHT22;46566;52.700;6.192;2024-03-17T15:20:23;12.10;99.90
60717;DHT22;46566;52.700;6.192;2024-03-17T15:22:50;12.10;99.90
60717;DHT22;46566;52.700;6.192;2024-03-17T15:25:17;12.10;99.90
60717;DHT22;46566;52.700;6.192;2024-03-17T15:27:44;12.00;99.90
60717;DHT22;46566;52.700;6.192;2024-03-17T15:30:32;12.00;99.90
60717;DHT22;46566;52.700;6.192;2024-03-17T15:32:58;12.00;99.90
60717;DHT22;46566;52.700;6.192;2024-03-17T15:35:24;12.00;99.90
60717;DHT22;46566;52.700;6.192;2024-03-17T15:37:50;12.00;99.90
60717;DHT22;46566;52.700;6.192;2024-03-17T15:40:16;12.00;99.90
60717;DHT22;46566;52.700;6.192;2024-03-17T15:43:09;11.90;99.90
60717;DHT22;46566;52.700;6.192;2024-03-17T15:45:35;11.90;99.90
60717;DHT22;46566;52.700;6.192;2024-03-17T15:48:07;11.90;99.90
60717;DHT22;46566;52.700;6.192;2024-03-17T15:50:58;11.80;99.90
60717;DHT22;46566;52.700;6.192;2024-03-17T15:53:25;11.80;99.90
60717;DHT22;46566;52.700;6.192;2024-03-17T15:55:56;11.80;99.90
60717;DHT22;46566;52.700;6.192;2024-03-17T15:58:50;11.80;99.90
60717;DHT22;46566;52.700;6.192;2024-03-17T16:01:16;11.80;99.90
60717;DHT22;46566;52.700;6.192;2024-03-17T16:03:43;11.80;99.90
60717;DHT22;46566;52.700;6.192;2024-03-17T16:06:16;11.80;99.90